createdAt,value
2024-01-27T04:58:25.062Z,-42.00
2024-01-27T04:58:28.385Z,-42.00
2024-01-27T04:58:31.722Z,-42.00
2024-01-27T04:58:35.053Z,-42.00
2024-01-27T04:58:38.439Z,-44.00
2024-01-27T04:58:41.796Z,-43.00
2024-01-27T04:59:28.227Z,-42.00
2024-01-27T04:59:31.572Z,-44.00
2024-01-27T04:59:34.924Z,-43.00
2024-01-27T04:59:38.269Z,-41.00
2024-01-27T04:59:41.589Z,-40.00
2024-01-27T04:59:44.950Z,-41.00
2024-01-27T05:00:31.538Z,-42.00
2024-01-27T05:00:34.987Z,-41.00
2024-01-27T05:00:38.467Z,-42.00
2024-01-27T05:00:42.103Z,-42.00
2024-01-27T05:00:45.641Z,-42.00
2024-01-27T05:00:49.098Z,-42.00
2024-01-27T05:58:24.927Z,-43.00
2024-01-27T05:58:28.267Z,-42.00
2024-01-27T05:58:31.685Z,-43.00
2024-01-27T05:58:34.994Z,-42.00
2024-01-27T05:58:38.341Z,-44.00
2024-01-27T05:58:41.679Z,-43.00
2024-01-27T05:59:25.069Z,-43.00
2024-01-27T05:59:28.419Z,-43.00
2024-01-27T05:59:31.783Z,-43.00
2024-01-27T05:59:35.106Z,-44.00
2024-01-27T05:59:38.442Z,-42.00
2024-01-27T05:59:41.819Z,-42.00
2024-01-27T06:00:28.358Z,-42.00
2024-01-27T06:00:31.824Z,-42.00
2024-01-27T06:00:35.281Z,-40.00
2024-01-27T06:00:38.941Z,-42.00
2024-01-27T06:00:42.401Z,-44.00
2024-01-27T06:00:45.994Z,-42.00
2024-01-27T06:58:25.761Z,-42.00
2024-01-27T06:58:29.099Z,-42.00
2024-01-27T06:58:32.484Z,-42.00
2024-01-27T06:58:35.852Z,-42.00
2024-01-27T06:58:39.223Z,-43.00
2024-01-27T06:58:42.610Z,-42.00
2024-01-27T06:59:25.803Z,-43.00
2024-01-27T06:59:29.159Z,-44.00
2024-01-27T06:59:32.494Z,-41.00
2024-01-27T06:59:35.830Z,-43.00
2024-01-27T06:59:42.544Z,-42.00
2024-01-27T06:59:45.908Z,-42.00
2024-01-27T07:00:25.847Z,-42.00
2024-01-27T07:00:29.299Z,-44.00
2024-01-27T07:00:32.793Z,-41.00
2024-01-27T07:00:36.265Z,-44.00
2024-01-27T07:00:43.269Z,-44.00
2024-01-27T07:00:46.827Z,-42.00
2024-01-27T07:59:34.773Z,-42.00
2024-01-27T07:59:38.125Z,-41.00
2024-01-27T07:59:41.474Z,-42.00
2024-01-27T07:59:44.811Z,-44.00
2024-01-27T07:59:48.157Z,-42.00
2024-01-27T07:59:51.610Z,-44.00
2024-01-27T08:00:34.949Z,-42.00
2024-01-27T08:00:38.501Z,-44.00
2024-01-27T08:00:42.061Z,-44.00
2024-01-27T08:00:45.567Z,-42.00
2024-01-27T08:00:49.494Z,-42.00
2024-01-27T08:00:57.671Z,-41.00
2024-01-27T08:59:34.613Z,-42.00
2024-01-27T08:59:37.944Z,-40.00
2024-01-27T08:59:41.290Z,-41.00
2024-01-27T08:59:44.626Z,-40.00
2024-01-27T08:59:47.958Z,-42.00
2024-01-27T08:59:51.347Z,-42.00
2024-01-27T09:00:34.877Z,-42.00
2024-01-27T09:00:38.399Z,-40.00
2024-01-27T09:00:42.067Z,-41.00
2024-01-27T09:00:45.595Z,-40.00
2024-01-27T09:00:49.059Z,-42.00
2024-01-27T09:00:52.610Z,-42.00
2024-01-27T09:58:24.195Z,-37.00
2024-01-27T09:59:20.746Z,-38.00
2024-01-27T09:59:24.128Z,-37.00
2024-01-27T09:59:27.472Z,-37.00
2024-01-27T09:59:35.729Z,-39.00
2024-01-27T09:59:39.077Z,-38.00
2024-01-27T09:59:42.429Z,-38.00
2024-01-27T10:00:22.406Z,-38.00
2024-01-27T10:00:25.814Z,-38.00
2024-01-27T10:00:29.296Z,-39.00
2024-01-27T10:00:36.040Z,-38.00
2024-01-27T10:00:39.591Z,-38.00
2024-01-27T10:00:43.070Z,-39.00
2024-01-27T16:58:22.843Z,-47.00
2024-01-27T16:58:26.161Z,-49.00
2024-01-27T16:58:29.509Z,-48.00
2024-01-27T16:58:32.876Z,-49.00
2024-01-27T16:58:36.215Z,-51.00
2024-01-27T16:58:39.549Z,-49.00
2024-01-27T16:59:26.080Z,-49.00
2024-01-27T16:59:29.406Z,-50.00
2024-01-27T16:59:37.666Z,-48.00
2024-01-27T16:59:45.914Z,-49.00
2024-01-27T16:59:49.261Z,-50.00
2024-01-27T16:59:52.601Z,-48.00
2024-01-27T17:00:29.253Z,-48.00
2024-01-27T17:00:32.745Z,-48.00
2024-01-27T17:00:39.528Z,-48.00
2024-01-27T17:00:46.337Z,-49.00
2024-01-27T17:00:49.788Z,-49.00
2024-01-27T17:00:53.218Z,-48.00
2024-01-27T17:59:38.379Z,-51.00
2024-01-27T17:59:41.705Z,-51.00
2024-01-27T17:59:45.063Z,-50.00
2024-01-27T17:59:48.413Z,-50.00
2024-01-27T17:59:54.538Z,-48.00
2024-01-27T17:59:59.459Z,-49.00
2024-01-27T18:00:39.643Z,-50.00
2024-01-27T18:00:43.136Z,-50.00
2024-01-27T18:00:46.546Z,-51.00
2024-01-27T18:00:49.976Z,-48.00
2024-01-27T18:00:53.420Z,-51.00
2024-01-27T18:01:00.214Z,-51.00
2024-01-27T20:59:30.831Z,-53.00
2024-01-27T20:59:34.166Z,-54.00
2024-01-27T20:59:37.491Z,-53.00
2024-01-27T20:59:40.839Z,-51.00
2024-01-27T20:59:44.184Z,-53.00
2024-01-27T20:59:47.513Z,-51.00
2024-01-27T21:00:34.158Z,-53.00
2024-01-27T21:00:37.644Z,-54.00
2024-01-27T21:00:41.118Z,-52.00
2024-01-27T21:00:44.557Z,-51.00
2024-01-27T21:00:47.996Z,-52.00
2024-01-27T21:00:51.449Z,-52.00
